createdAt,value
2019-04-21T00:01:52.188Z,21.80
2019-04-21T00:04:33.140Z,21.80
2019-04-21T00:07:08.672Z,21.80
2019-04-21T00:09:39.694Z,21.80
2019-04-21T00:12:07.525Z,21.70
2019-04-21T00:14:30.273Z,21.80
2019-04-21T00:16:56.307Z,21.70
2019-04-21T00:19:29.848Z,21.60
2019-04-21T00:22:08.602Z,21.70
2019-04-21T00:24:42.361Z,21.70
2019-04-21T00:27:14.214Z,21.80
2019-04-21T00:29:42.559Z,21.80
2019-04-21T00:32:10.517Z,21.90
2019-04-21T00:34:27.775Z,22.00
2019-04-21T00:37:09.461Z,22.00
2019-04-21T00:39:55.718Z,22.00
2019-04-21T00:42:14.557Z,22.00
2019-04-21T00:44:38.860Z,22.10
2019-04-21T00:47:15.706Z,22.10
2019-04-21T00:49:52.172Z,22.10
2019-04-21T00:52:48.827Z,22.10
2019-04-21T00:55:14.004Z,22.20
2019-04-21T00:57:42.710Z,22.20
2019-04-21T01:00:10.628Z,22.20
2019-04-21T01:02:40.225Z,22.20
2019-04-21T01:05:11.167Z,22.20
2019-04-21T01:07:37.292Z,22.20
2019-04-21T01:09:58.326Z,22.20
2019-04-21T01:12:37.340Z,22.20
2019-04-21T01:15:15.668Z,22.20
2019-04-21T01:17:38.260Z,22.30
2019-04-21T01:20:00.029Z,22.30
2019-04-21T01:22:14.507Z,22.30
2019-04-21T01:24:46.859Z,22.30
2019-04-21T01:27:25.030Z,22.30
2019-04-21T01:30:10.005Z,22.30
2019-04-21T01:32:34.416Z,22.20
2019-04-21T01:35:05.247Z,22.20
2019-04-21T01:37:39.926Z,22.20
2019-04-21T01:40:14.420Z,22.20
2019-04-21T01:42:32.815Z,22.20
2019-04-21T01:45:04.382Z,22.20
2019-04-21T01:47:31.477Z,22.20
2019-04-21T01:49:55.549Z,22.20
2019-04-21T01:52:43.949Z,22.20
2019-04-21T01:55:15.417Z,22.30
2019-04-21T01:57:46.653Z,22.20
2019-04-21T02:00:07.101Z,22.20
2019-04-21T02:02:57.779Z,22.30
2019-04-21T02:05:26.404Z,22.30
2019-04-21T02:07:50.565Z,22.30
2019-04-21T02:10:19.734Z,22.20
2019-04-21T02:12:51.074Z,22.30
2019-04-21T02:15:23.635Z,22.30
2019-04-21T02:20:12.035Z,22.30
2019-04-21T02:23:05.941Z,22.30
2019-04-21T02:25:23.891Z,22.30
2019-04-21T02:27:51.524Z,22.30
2019-04-21T02:30:33.609Z,22.30
2019-04-21T02:33:18.713Z,22.30
2019-04-21T02:38:01.298Z,22.30
2019-04-21T02:40:29.708Z,22.30
2019-04-21T02:43:07.443Z,22.30
2019-04-21T02:48:04.417Z,22.30
2019-04-21T02:50:33.578Z,22.30
2019-04-21T02:53:05.219Z,22.30
2019-04-21T02:58:06.209Z,22.30
2019-04-21T03:00:42.800Z,22.30
2019-04-21T03:03:31.643Z,22.30
2019-04-21T03:08:44.385Z,22.30
2019-04-21T03:11:11.146Z,22.30
2019-04-21T03:13:41.671Z,22.30
2019-04-21T03:16:12.346Z,22.30
2019-04-21T03:18:43.576Z,22.30
2019-04-21T03:21:16.473Z,22.30
2019-04-21T03:23:36.670Z,22.30
2019-04-21T03:26:10.274Z,22.30
2019-04-21T03:36:33.455Z,22.30
2019-04-21T03:41:04.521Z,22.30
2019-04-21T03:43:34.546Z,22.30
2019-04-21T03:46:01.854Z,22.30
2019-04-21T03:48:35.646Z,22.30
2019-04-21T03:51:04.287Z,22.30
2019-04-21T03:53:32.507Z,22.30
2019-04-21T03:56:14.639Z,22.30
2019-04-21T03:58:46.358Z,22.20
2019-04-21T04:04:00.704Z,22.30
2019-04-21T04:09:19.469Z,22.20
2019-04-21T04:14:25.070Z,22.20
2019-04-21T04:17:06.104Z,22.20
2019-04-21T04:19:34.435Z,22.20
2019-04-21T04:22:00.782Z,22.20
2019-04-21T04:24:24.255Z,22.20
2019-04-21T04:26:53.579Z,22.20
2019-04-21T04:36:58.545Z,22.20
2019-04-21T04:42:12.818Z,22.20
2019-04-21T04:44:46.305Z,22.20
2019-04-21T04:47:04.609Z,22.20
2019-04-21T04:49:43.407Z,22.20
2019-04-21T04:54:39.203Z,22.20
2019-04-21T04:57:08.401Z,22.20
2019-04-21T05:04:42.968Z,22.10
2019-04-21T05:06:58.094Z,22.20
2019-04-21T05:11:55.586Z,22.20
2019-04-21T05:14:29.833Z,22.20
2019-04-21T05:17:02.276Z,22.20
2019-04-21T05:19:36.160Z,22.20
2019-04-21T05:21:55.365Z,22.20
2019-04-21T05:24:16.570Z,22.20
2019-04-21T05:26:49.396Z,22.20
2019-04-21T05:29:15.805Z,22.20
2019-04-21T05:31:56.758Z,22.10
2019-04-21T05:34:29.031Z,22.10
2019-04-21T05:36:57.829Z,22.10
2019-04-21T05:39:40.402Z,22.10
2019-04-21T05:42:02.294Z,22.10
2019-04-21T05:44:52.759Z,22.20
2019-04-21T05:49:49.984Z,22.10
2019-04-21T05:52:21.523Z,22.10
2019-04-21T05:55:06.342Z,22.10
2019-04-21T05:57:25.436Z,22.10
2019-04-21T05:59:53.729Z,22.10
2019-04-21T06:02:44.142Z,22.10
2019-04-21T06:05:05.843Z,22.10
2019-04-21T06:07:28.988Z,22.10
2019-04-21T06:09:59.759Z,22.10
2019-04-21T06:12:29.917Z,22.20
2019-04-21T06:17:39.246Z,22.20
2019-04-21T06:20:13.249Z,22.20
2019-04-21T06:22:27.100Z,22.20
2019-04-21T06:29:59.967Z,22.10
2019-04-21T06:35:13.364Z,22.10
2019-04-21T06:40:15.302Z,22.10
2019-04-21T06:42:35.386Z,22.10
2019-04-21T06:45:20.446Z,22.10
2019-04-21T06:50:03.943Z,22.20
2019-04-21T06:52:45.624Z,22.20
2019-04-21T06:57:35.748Z,22.20
2019-04-21T07:00:03.503Z,22.20
2019-04-21T07:02:50.684Z,22.20
2019-04-21T07:05:08.945Z,22.20
2019-04-21T07:07:35.543Z,22.20
2019-04-21T07:10:10.288Z,22.20
2019-04-21T07:12:32.232Z,22.20
2019-04-21T07:15:03.325Z,22.20
2019-04-21T07:17:35.735Z,22.30
2019-04-21T07:20:10.034Z,22.30
2019-04-21T07:22:36.880Z,22.30
2019-04-21T07:25:09.032Z,22.30
2019-04-21T07:27:36.949Z,22.30
2019-04-21T07:30:11.689Z,22.30
2019-04-21T07:32:33.692Z,22.30
2019-04-21T07:37:35.595Z,22.30
2019-04-21T07:40:01.781Z,22.40
2019-04-21T07:42:34.018Z,22.40
2019-04-21T07:44:57.694Z,22.40
2019-04-21T07:47:48.831Z,22.40
2019-04-21T07:50:24.097Z,22.40
2019-04-21T07:53:02.061Z,22.40
2019-04-21T07:57:52.381Z,22.40
2019-04-21T08:03:05.518Z,22.50
2019-04-21T08:07:55.901Z,22.50
2019-04-21T08:10:26.015Z,22.50
2019-04-21T08:12:54.214Z,22.50
2019-04-21T08:18:25.382Z,22.60
2019-04-21T08:20:47.833Z,22.60
2019-04-21T08:23:23.735Z,22.60
2019-04-21T08:26:10.392Z,22.50
2019-04-21T08:28:24.163Z,22.60
2019-04-21T08:30:52.271Z,22.60
2019-04-21T08:33:29.643Z,22.60
2019-04-21T08:38:20.378Z,22.70
2019-04-21T08:40:51.126Z,22.70
2019-04-21T08:43:30.736Z,22.70
2019-04-21T08:45:52.432Z,22.70
2019-04-21T08:48:22.823Z,22.70
2019-04-21T08:51:02.153Z,22.80
2019-04-21T08:53:24.719Z,22.80
2019-04-21T08:56:07.775Z,22.80
2019-04-21T09:01:17.233Z,22.80
2019-04-21T09:03:57.204Z,22.70
2019-04-21T09:08:58.101Z,22.70
2019-04-21T09:11:22.229Z,22.70
2019-04-21T09:13:57.233Z,22.70
2019-04-21T09:16:21.910Z,22.70
2019-04-21T09:18:47.280Z,22.80
2019-04-21T09:21:25.864Z,22.80
2019-04-21T09:23:56.436Z,22.80
2019-04-21T09:26:26.292Z,22.80
2019-04-21T09:28:48.118Z,22.80
2019-04-21T09:31:08.273Z,22.90
2019-04-21T09:33:41.259Z,23.00
2019-04-21T09:36:11.308Z,23.10
2019-04-21T09:38:41.491Z,23.10
2019-04-21T09:41:15.508Z,23.20
2019-04-21T09:43:43.625Z,23.20
2019-04-21T09:46:08.336Z,23.20
2019-04-21T09:48:46.708Z,23.20
2019-04-21T09:51:07.220Z,23.20
2019-04-21T09:53:38.893Z,23.20
2019-04-21T09:56:11.771Z,23.30
2019-04-21T09:58:40.850Z,23.30
2019-04-21T10:01:14.384Z,23.40
2019-04-21T10:03:43.394Z,23.50
2019-04-21T10:06:06.997Z,23.50
2019-04-21T10:08:36.383Z,23.40
2019-04-21T10:11:05.442Z,23.40
2019-04-21T10:13:36.279Z,23.50
2019-04-21T10:16:08.004Z,23.50
2019-04-21T10:18:36.339Z,23.50
2019-04-21T10:21:05.536Z,23.50
2019-04-21T10:23:33.956Z,23.60
2019-04-21T10:26:02.263Z,23.60
2019-04-21T10:28:31.022Z,23.60
2019-04-21T10:31:00.778Z,23.60
2019-04-21T10:33:30.336Z,23.60
2019-04-21T10:35:59.195Z,23.70
2019-04-21T10:38:35.487Z,23.60
2019-04-21T10:40:57.614Z,23.60
2019-04-21T10:43:27.462Z,23.60
2019-04-21T10:45:56.991Z,23.60
2019-04-21T10:48:25.492Z,23.60
2019-04-21T10:50:54.926Z,23.60
2019-04-21T10:53:25.019Z,23.80
2019-04-21T10:56:04.469Z,23.80
2019-04-21T10:58:26.523Z,23.90
2019-04-21T11:01:06.184Z,23.90
2019-04-21T11:03:42.740Z,24.00
2019-04-21T11:06:13.048Z,24.00
2019-04-21T11:08:44.081Z,23.90
2019-04-21T11:11:12.126Z,23.90
2019-04-21T11:13:41.062Z,24.00
2019-04-21T11:16:10.678Z,23.90
2019-04-21T11:18:39.953Z,23.90
2019-04-21T11:21:09.210Z,23.90
2019-04-21T11:23:37.656Z,23.80
2019-04-21T11:26:06.469Z,23.90
2019-04-21T11:28:35.197Z,24.00
2019-04-21T11:31:04.880Z,24.10
2019-04-21T11:33:33.458Z,24.20
2019-04-21T11:36:01.951Z,24.30
2019-04-21T11:41:27.870Z,24.40
2019-04-21T11:43:57.199Z,24.50
2019-04-21T11:46:26.772Z,24.50
2019-04-21T11:48:55.650Z,24.40
2019-04-21T11:51:24.917Z,24.30
2019-04-21T11:53:54.865Z,24.10
2019-04-21T11:56:24.972Z,24.10
2019-04-21T11:58:54.064Z,24.00
2019-04-21T12:01:23.500Z,23.90
2019-04-21T12:03:51.984Z,23.90
2019-04-21T12:06:28.602Z,23.90
2019-04-21T12:08:52.936Z,23.90
2019-04-21T12:11:21.072Z,23.90
2019-04-21T12:13:49.947Z,23.90
2019-04-21T12:16:19.037Z,23.90
2019-04-21T12:18:49.231Z,23.90
2019-04-21T12:21:18.990Z,23.90
2019-04-21T12:23:48.118Z,23.90
2019-04-21T12:26:17.933Z,23.90
2019-04-21T12:28:46.461Z,23.90
2019-04-21T12:31:19.534Z,23.90
2019-04-21T12:33:58.518Z,23.90
2019-04-21T12:36:27.537Z,23.90
2019-04-21T12:38:59.503Z,23.90
2019-04-21T12:41:26.712Z,23.90
2019-04-21T12:43:55.310Z,23.90
2019-04-21T12:46:23.638Z,23.80
2019-04-21T12:48:51.959Z,23.80
2019-04-21T12:51:21.820Z,23.70
2019-04-21T12:53:51.773Z,23.70
2019-04-21T12:56:20.699Z,23.70
2019-04-21T12:58:49.122Z,23.70
2019-04-21T13:01:18.837Z,23.70
2019-04-21T13:03:47.986Z,23.70
2019-04-21T13:06:16.736Z,23.70
2019-04-21T13:08:53.582Z,23.70
2019-04-21T13:11:16.988Z,23.60
2019-04-21T13:13:45.954Z,23.60
2019-04-21T13:16:15.577Z,23.70
2019-04-21T13:18:44.945Z,23.60
2019-04-21T13:21:14.031Z,23.60
2019-04-21T13:23:43.010Z,23.60
2019-04-21T13:26:12.928Z,23.60
2019-04-21T13:28:42.545Z,23.70
2019-04-21T13:31:11.941Z,23.70
2019-04-21T13:33:41.918Z,23.80
2019-04-21T13:36:11.762Z,23.80
2019-04-21T13:38:57.107Z,23.80
2019-04-21T13:41:29.659Z,23.80
2019-04-21T13:43:47.525Z,23.90
2019-04-21T13:46:17.587Z,23.90
2019-04-21T13:48:46.586Z,23.90
2019-04-21T13:51:15.433Z,23.80
2019-04-21T13:53:43.967Z,23.80
2019-04-21T13:56:14.189Z,23.80
2019-04-21T13:58:44.221Z,23.80
2019-04-21T14:01:13.810Z,23.80
2019-04-21T14:03:43.931Z,23.80
2019-04-21T14:06:12.492Z,23.90
2019-04-21T14:08:43.624Z,23.90
2019-04-21T14:11:11.376Z,23.80
2019-04-21T14:13:40.603Z,23.80
2019-04-21T14:16:09.682Z,23.80
2019-04-21T14:18:38.624Z,23.80
2019-04-21T14:21:07.329Z,23.80
2019-04-21T14:23:43.370Z,23.80
2019-04-21T14:26:11.971Z,23.80
2019-04-21T14:28:41.041Z,23.80
2019-04-21T14:31:10.482Z,23.80
2019-04-21T14:33:40.272Z,23.80
2019-04-21T14:36:10.401Z,23.80
2019-04-21T14:38:40.652Z,23.80
2019-04-21T14:41:10.338Z,23.90
2019-04-21T14:43:41.762Z,23.90
2019-04-21T14:46:15.319Z,23.80
2019-04-21T14:49:01.400Z,23.80
2019-04-21T14:51:47.465Z,23.80
2019-04-21T14:54:18.010Z,23.80
2019-04-21T14:56:47.311Z,23.90
2019-04-21T14:59:17.114Z,23.90
2019-04-21T15:01:46.319Z,23.90
2019-04-21T15:04:17.264Z,23.80
2019-04-21T15:06:45.577Z,23.80
2019-04-21T15:09:15.278Z,23.80
2019-04-21T15:11:44.343Z,23.90
2019-04-21T15:14:13.813Z,23.90
2019-04-21T15:16:42.828Z,23.90
2019-04-21T15:19:12.794Z,24.00
2019-04-21T15:22:00.910Z,24.10
2019-04-21T15:24:30.150Z,24.10
2019-04-21T15:26:59.097Z,24.10
2019-04-21T15:29:28.801Z,24.00
2019-04-21T15:31:58.826Z,24.00
2019-04-21T15:34:27.596Z,23.90
2019-04-21T15:36:55.981Z,23.90
2019-04-21T15:39:25.650Z,23.90
2019-04-21T15:41:54.572Z,23.90
2019-04-21T15:44:23.080Z,23.90
2019-04-21T15:46:52.043Z,23.90
2019-04-21T15:49:23.094Z,23.80
2019-04-21T15:51:51.919Z,23.90
2019-04-21T15:54:20.642Z,23.90
2019-04-21T15:57:03.282Z,23.80
2019-04-21T15:59:34.671Z,23.90
2019-04-21T16:02:10.677Z,23.80
2019-04-21T16:04:40.759Z,23.80
2019-04-21T16:07:09.701Z,23.80
2019-04-21T16:09:39.848Z,23.80
2019-04-21T16:12:09.697Z,23.80
2019-04-21T16:14:38.627Z,23.80
2019-04-21T16:17:07.573Z,23.80
2019-04-21T16:19:36.388Z,23.80
2019-04-21T16:22:06.445Z,23.80
2019-04-21T16:24:35.801Z,23.80
2019-04-21T16:27:06.883Z,23.80
2019-04-21T16:29:35.829Z,23.90
2019-04-21T16:32:04.929Z,23.90
2019-04-21T16:34:40.149Z,23.80
2019-04-21T16:37:03.655Z,23.90
2019-04-21T16:39:33.471Z,23.90
2019-04-21T16:42:02.554Z,23.90
2019-04-21T16:44:31.284Z,23.80
2019-04-21T16:47:01.214Z,23.90
2019-04-21T16:49:30.051Z,23.90
2019-04-21T16:52:12.212Z,23.90
2019-04-21T16:54:42.356Z,23.90
2019-04-21T16:57:12.310Z,23.90
2019-04-21T16:59:42.383Z,23.90
2019-04-21T17:02:10.760Z,23.80
2019-04-21T17:04:40.295Z,23.90
2019-04-21T17:07:09.184Z,23.80
2019-04-21T17:09:38.842Z,23.80
2019-04-21T17:12:10.402Z,23.80
2019-04-21T17:14:53.521Z,23.80
2019-04-21T17:17:32.229Z,23.80
2019-04-21T17:19:43.604Z,23.70
2019-04-21T17:22:07.960Z,23.70
2019-04-21T17:24:37.776Z,23.70
2019-04-21T17:27:07.021Z,23.60
2019-04-21T17:29:36.599Z,23.60
2019-04-21T17:32:07.890Z,23.60
2019-04-21T17:34:36.098Z,23.60
2019-04-21T17:37:05.585Z,23.60
2019-04-21T17:39:34.606Z,23.60
2019-04-21T17:42:16.598Z,23.60
2019-04-21T17:44:33.388Z,23.60
2019-04-21T17:47:05.647Z,23.60
2019-04-21T17:49:32.930Z,23.60
2019-04-21T17:52:08.994Z,23.60
2019-04-21T17:54:44.788Z,23.60
2019-04-21T17:57:26.122Z,23.60
2019-04-21T18:00:13.950Z,23.60
2019-04-21T18:02:29.825Z,23.60
2019-04-21T18:05:02.399Z,23.60
2019-04-21T18:07:31.575Z,23.50
2019-04-21T18:10:10.085Z,23.50
2019-04-21T18:12:25.052Z,23.50
2019-04-21T18:14:51.581Z,23.50
2019-04-21T18:17:10.866Z,23.60
2019-04-21T18:19:41.761Z,23.60
2019-04-21T18:22:12.815Z,23.60
2019-04-21T18:24:54.266Z,23.60
2019-04-21T18:27:15.888Z,23.60
2019-04-21T18:29:44.578Z,23.50
2019-04-21T18:32:18.523Z,23.50
2019-04-21T18:35:07.054Z,23.50
2019-04-21T18:37:40.849Z,23.50
2019-04-21T18:40:15.327Z,23.40
2019-04-21T18:42:54.409Z,23.40
2019-04-21T18:48:11.116Z,23.40
2019-04-21T18:50:48.984Z,23.40
2019-04-21T18:53:39.453Z,23.30
2019-04-21T18:55:54.733Z,23.30
2019-04-21T18:58:18.138Z,23.30
2019-04-21T19:00:48.810Z,23.30
2019-04-21T19:03:25.226Z,23.20
2019-04-21T19:05:53.173Z,23.20
2019-04-21T19:08:31.467Z,23.20
2019-04-21T19:11:11.523Z,23.20
2019-04-21T19:13:51.393Z,23.20
2019-04-21T19:16:27.985Z,23.20
2019-04-21T19:18:50.621Z,23.20
2019-04-21T19:21:06.183Z,23.20
2019-04-21T19:23:45.316Z,23.20
2019-04-21T19:26:23.344Z,23.30
2019-04-21T19:28:47.185Z,23.20
2019-04-21T19:31:16.700Z,23.30
2019-04-21T19:33:36.115Z,23.30
2019-04-21T19:35:55.050Z,23.30
2019-04-21T19:38:38.740Z,23.20
2019-04-21T19:41:14.179Z,23.10
2019-04-21T19:43:45.986Z,23.10
2019-04-21T19:46:13.970Z,23.00
2019-04-21T19:48:52.806Z,23.00
2019-04-21T19:51:14.470Z,22.90
2019-04-21T19:53:42.127Z,22.90
2019-04-21T19:55:56.110Z,22.90
2019-04-21T19:58:27.494Z,22.90
2019-04-21T20:00:57.420Z,22.90
2019-04-21T20:03:26.202Z,22.80
2019-04-21T20:06:04.067Z,22.90
2019-04-21T20:08:38.916Z,22.80
2019-04-21T20:11:15.830Z,22.80
2019-04-21T20:14:18.864Z,22.80
2019-04-21T20:16:15.076Z,22.70
2019-04-21T20:18:34.901Z,22.70
2019-04-21T20:20:56.436Z,22.70
2019-04-21T20:23:31.553Z,22.60
2019-04-21T20:26:00.825Z,22.60
2019-04-21T20:28:38.468Z,22.60
2019-04-21T20:31:14.757Z,22.50
2019-04-21T20:33:57.924Z,22.50
2019-04-21T20:36:15.021Z,22.50
2019-04-21T20:38:35.852Z,22.50
2019-04-21T20:41:01.846Z,22.50
2019-04-21T20:43:45.655Z,22.50
2019-04-21T20:46:12.276Z,22.50
2019-04-21T20:48:42.886Z,22.40
2019-04-21T20:51:11.266Z,22.40
2019-04-21T20:53:46.594Z,22.40
2019-04-21T20:56:09.065Z,22.40
2019-04-21T20:58:49.350Z,22.40
2019-04-21T21:03:46.407Z,22.40
2019-04-21T21:06:14.440Z,22.30
2019-04-21T21:08:44.962Z,22.30
2019-04-21T21:11:21.314Z,22.30
2019-04-21T21:13:55.409Z,22.20
2019-04-21T21:16:35.660Z,22.10
2019-04-21T21:19:08.175Z,22.20
2019-04-21T21:21:23.026Z,22.10
2019-04-21T21:23:53.092Z,22.10
2019-04-21T21:26:25.829Z,22.10
2019-04-21T21:28:49.847Z,22.20
2019-04-21T21:31:25.167Z,22.20
2019-04-21T21:36:24.073Z,22.10
2019-04-21T21:38:55.977Z,22.10
2019-04-21T21:41:16.345Z,22.10
2019-04-21T21:43:39.172Z,22.10
2019-04-21T21:46:24.920Z,22.10
2019-04-21T21:48:51.715Z,22.00
2019-04-21T21:51:18.110Z,22.00
2019-04-21T21:53:39.948Z,22.00
2019-04-21T21:56:09.014Z,21.90
2019-04-21T21:58:42.257Z,21.90
2019-04-21T22:01:09.898Z,21.90
2019-04-21T22:03:42.712Z,21.90
2019-04-21T22:06:13.606Z,21.90
2019-04-21T22:08:38.729Z,21.90
2019-04-21T22:11:08.999Z,21.90
2019-04-21T22:13:46.879Z,21.90
2019-04-21T22:16:41.139Z,21.90
2019-04-21T22:19:18.452Z,21.90
2019-04-21T22:21:49.405Z,21.80
2019-04-21T22:24:05.417Z,21.80
2019-04-21T22:26:27.638Z,21.80
2019-04-21T22:28:55.963Z,21.70
2019-04-21T22:31:29.048Z,21.70
2019-04-21T22:34:00.344Z,21.70
2019-04-21T22:36:35.354Z,21.60
2019-04-21T22:39:14.122Z,21.70
2019-04-21T22:41:33.809Z,21.90
2019-04-21T22:43:55.899Z,22.00
2019-04-21T22:46:24.717Z,22.00
2019-04-21T22:48:59.782Z,22.10
2019-04-21T22:51:30.282Z,22.20
2019-04-21T22:53:55.768Z,22.30
2019-04-21T22:56:27.904Z,22.30
2019-04-21T22:58:54.987Z,22.30
2019-04-21T23:01:30.161Z,22.40
2019-04-21T23:03:58.615Z,22.40
2019-04-21T23:06:27.577Z,22.40
2019-04-21T23:08:55.115Z,22.40
2019-04-21T23:11:28.087Z,22.40
2019-04-21T23:14:03.738Z,22.40
2019-04-21T23:16:31.087Z,22.40
2019-04-21T23:19:15.895Z,22.40
2019-04-21T23:21:36.265Z,22.50
2019-04-21T23:24:10.114Z,22.50
2019-04-21T23:26:40.736Z,22.50
2019-04-21T23:31:55.114Z,22.50
2019-04-21T23:34:06.432Z,22.50
2019-04-21T23:36:36.063Z,22.50
2019-04-21T23:39:14.435Z,22.50
2019-04-21T23:41:43.503Z,22.50
2019-04-21T23:44:11.425Z,22.50
2019-04-21T23:46:38.735Z,22.50
2019-04-21T23:49:20.091Z,22.50
2019-04-21T23:51:45.265Z,22.50
2019-04-21T23:54:07.197Z,22.50
2019-04-21T23:56:39.536Z,22.50
2019-04-21T23:59:10.307Z,22.50
